createdAt,value
2023-04-12T00:01:46.088Z,11.10
2023-04-12T00:04:14.533Z,11.10
2023-04-12T00:06:42.877Z,11.17
2023-04-12T00:09:11.231Z,11.16
2023-04-12T00:11:39.252Z,11.15
2023-04-12T00:14:08.453Z,11.16
2023-04-12T00:16:38.200Z,11.15
2023-04-12T00:19:06.615Z,11.19
2023-04-12T00:21:34.487Z,11.20
2023-04-12T00:24:02.519Z,11.26
2023-04-12T00:26:30.290Z,11.27
2023-04-12T00:28:58.314Z,11.29
2023-04-12T00:31:27.543Z,11.36
2023-04-12T00:33:55.995Z,11.35
2023-04-12T00:36:24.273Z,11.38
2023-04-12T00:38:51.993Z,11.16
2023-04-12T00:41:19.922Z,11.26
2023-04-12T00:43:48.110Z,11.23
2023-04-12T00:46:17.504Z,11.23
2023-04-12T00:48:48.147Z,11.30
2023-04-12T00:51:18.158Z,11.33
2023-04-12T00:53:46.386Z,11.25
2023-04-12T00:56:14.428Z,11.36
2023-04-12T00:58:42.291Z,11.31
2023-04-12T01:01:10.716Z,11.32
2023-04-12T01:03:43.295Z,11.38
2023-04-12T01:06:17.448Z,11.46
2023-04-12T01:08:55.816Z,11.54
2023-04-12T01:11:32.339Z,11.49
2023-04-12T01:14:09.581Z,11.53
2023-04-12T01:16:41.091Z,11.72
2023-04-12T01:19:38.111Z,11.54
2023-04-12T01:22:18.227Z,11.59
2023-04-12T01:24:57.556Z,11.60
2023-04-12T01:27:40.645Z,11.58
2023-04-12T01:30:12.997Z,11.53
2023-04-12T01:32:45.518Z,11.58
2023-04-12T01:35:14.891Z,11.55
2023-04-12T01:37:43.909Z,11.46
2023-04-12T01:40:13.988Z,11.37
2023-04-12T01:42:43.253Z,11.41
2023-04-12T01:45:11.817Z,11.27
2023-04-12T01:47:40.187Z,11.24
2023-04-12T01:50:16.152Z,11.08
2023-04-12T01:52:51.087Z,11.22
2023-04-12T01:55:22.018Z,11.27
2023-04-12T01:57:53.043Z,11.23
2023-04-12T02:00:21.929Z,11.24
2023-04-12T02:02:50.128Z,11.23
2023-04-12T02:05:19.005Z,11.11
2023-04-12T02:07:48.098Z,11.11
2023-04-12T02:10:29.467Z,11.17
2023-04-12T02:13:01.439Z,11.02
2023-04-12T02:15:30.291Z,10.99
2023-04-12T02:17:59.712Z,11.03
2023-04-12T02:20:27.923Z,11.05
2023-04-12T02:22:56.239Z,10.97
2023-04-12T02:25:24.264Z,10.93
2023-04-12T02:27:52.233Z,10.94
2023-04-12T02:30:22.787Z,10.85
2023-04-12T02:32:53.878Z,10.87
2023-04-12T02:35:28.714Z,10.98
2023-04-12T02:38:03.926Z,11.01
2023-04-12T02:40:31.851Z,10.97
2023-04-12T02:42:59.809Z,11.09
2023-04-12T02:45:29.590Z,11.06
2023-04-12T02:47:58.289Z,10.91
2023-04-12T02:50:29.996Z,10.86
2023-04-12T02:53:05.441Z,10.79
2023-04-12T02:55:33.479Z,10.78
2023-04-12T02:58:04.192Z,10.72
2023-04-12T03:00:34.813Z,10.76
2023-04-12T03:03:04.148Z,10.91
2023-04-12T03:05:33.434Z,10.86
2023-04-12T03:08:01.712Z,10.62
2023-04-12T03:10:39.619Z,10.39
2023-04-12T03:13:07.471Z,10.55
2023-04-12T03:15:48.375Z,10.59
2023-04-12T03:18:17.227Z,10.67
2023-04-12T03:20:48.679Z,10.65
2023-04-12T03:23:17.971Z,10.78
2023-04-12T03:25:50.814Z,10.56
2023-04-12T03:28:32.189Z,10.56
2023-04-12T03:31:03.021Z,10.52
2023-04-12T03:33:40.676Z,10.53
2023-04-12T03:36:17.346Z,10.53
2023-04-12T03:38:48.197Z,10.52
2023-04-12T03:41:16.677Z,10.41
2023-04-12T03:43:44.381Z,10.35
2023-04-12T03:46:19.728Z,10.51
2023-04-12T03:48:55.756Z,10.39
2023-04-12T03:51:27.020Z,10.40
2023-04-12T03:54:02.805Z,10.24
2023-04-12T03:56:36.705Z,10.42
2023-04-12T03:59:08.760Z,10.39
2023-04-12T04:01:39.902Z,10.55
2023-04-12T04:04:08.104Z,10.68
2023-04-12T04:06:36.553Z,10.61
2023-04-12T04:09:05.603Z,10.80
2023-04-12T04:11:37.745Z,10.85
2023-04-12T04:14:08.371Z,10.85
2023-04-12T04:16:36.837Z,10.91
2023-04-12T04:19:08.314Z,10.74
2023-04-12T04:21:36.123Z,10.67
2023-04-12T04:24:07.060Z,10.57
2023-04-12T04:26:39.437Z,10.61
2023-04-12T04:29:13.493Z,10.57
2023-04-12T04:31:41.407Z,10.26
2023-04-12T04:34:12.852Z,10.17
2023-04-12T04:36:45.039Z,10.38
2023-04-12T04:39:17.677Z,10.46
2023-04-12T04:41:46.683Z,10.39
2023-04-12T04:44:22.532Z,10.50
2023-04-12T04:47:00.744Z,10.32
2023-04-12T04:49:30.057Z,10.35
2023-04-12T04:52:05.013Z,10.46
2023-04-12T04:54:33.210Z,10.52
2023-04-12T04:57:03.035Z,10.40
2023-04-12T04:59:31.184Z,10.48
2023-04-12T05:02:12.086Z,10.43
2023-04-12T05:04:41.464Z,10.52
2023-04-12T05:07:13.190Z,10.56
2023-04-12T05:09:43.624Z,10.66
2023-04-12T05:12:11.804Z,10.60
2023-04-12T05:14:47.289Z,10.42
2023-04-12T05:17:19.217Z,10.42
2023-04-12T05:19:48.506Z,10.31
2023-04-12T05:22:20.275Z,10.42
2023-04-12T05:24:48.230Z,10.31
2023-04-12T05:27:17.118Z,10.26
2023-04-12T05:29:47.152Z,10.36
2023-04-12T05:32:16.650Z,10.48
2023-04-12T05:34:44.644Z,10.38
2023-04-12T05:37:13.850Z,10.25
2023-04-12T05:39:41.624Z,10.30
2023-04-12T05:42:11.308Z,10.42
2023-04-12T05:44:40.270Z,10.24
2023-04-12T05:47:12.130Z,10.43
2023-04-12T05:49:40.105Z,10.35
2023-04-12T05:52:10.851Z,10.25
2023-04-12T05:54:40.296Z,10.26
2023-04-12T05:57:10.791Z,10.34
2023-04-12T05:59:38.570Z,10.13
2023-04-12T06:02:06.403Z,10.17
2023-04-12T06:04:48.778Z,10.14
2023-04-12T06:07:19.381Z,10.19
2023-04-12T06:09:49.785Z,10.23
2023-04-12T06:12:18.482Z,10.18
2023-04-12T06:14:46.615Z,10.09
2023-04-12T06:17:14.498Z,10.23
2023-04-12T06:19:43.066Z,10.25
2023-04-12T06:22:10.845Z,10.26
2023-04-12T06:24:40.670Z,10.28
2023-04-12T06:27:11.447Z,10.27
2023-04-12T06:29:39.260Z,10.30
2023-04-12T06:32:07.480Z,10.22
2023-04-12T06:34:36.133Z,10.25
2023-04-12T06:37:18.471Z,10.40
2023-04-12T06:39:46.192Z,10.29
2023-04-12T06:42:16.588Z,10.25
2023-04-12T06:44:44.330Z,10.15
2023-04-12T06:47:12.261Z,10.19
2023-04-12T06:49:40.514Z,10.18
2023-04-12T06:52:08.460Z,10.22
2023-04-12T06:54:37.632Z,10.26
2023-04-12T06:57:09.394Z,10.26
2023-04-12T06:59:38.482Z,10.32
2023-04-12T07:02:07.696Z,10.27
2023-04-12T07:04:35.690Z,10.21
2023-04-12T07:07:03.537Z,10.14
2023-04-12T07:09:32.250Z,10.11
2023-04-12T07:12:00.163Z,10.23
2023-04-12T07:14:27.971Z,10.24
2023-04-12T07:16:57.633Z,10.14
2023-04-12T07:19:25.484Z,10.12
2023-04-12T07:21:53.290Z,10.19
2023-04-12T07:24:21.128Z,10.02
2023-04-12T07:26:48.914Z,10.13
2023-04-12T07:29:17.069Z,10.29
2023-04-12T07:31:45.665Z,10.23
2023-04-12T07:34:14.958Z,10.33
2023-04-12T07:36:44.051Z,10.23
2023-04-12T07:39:12.918Z,10.18
2023-04-12T07:41:42.256Z,10.25
2023-04-12T07:44:10.053Z,10.37
2023-04-12T07:46:37.842Z,10.25
2023-04-12T07:49:05.947Z,10.17
2023-04-12T07:51:35.096Z,10.17
2023-04-12T07:54:03.733Z,10.22
2023-04-12T07:56:31.663Z,10.36
2023-04-12T07:58:59.912Z,10.38
2023-04-12T08:01:28.483Z,10.35
2023-04-12T08:03:56.933Z,10.44
2023-04-12T08:06:26.825Z,10.59
2023-04-12T08:08:57.800Z,10.58
2023-04-12T08:11:25.633Z,10.47
2023-04-12T08:13:53.512Z,10.36
2023-04-12T08:16:21.499Z,10.39
2023-04-12T08:18:49.324Z,10.39
2023-04-12T08:21:17.119Z,10.55
2023-04-12T08:23:45.138Z,10.60
2023-04-12T08:26:14.436Z,10.45
2023-04-12T08:28:42.768Z,10.34
2023-04-12T08:31:11.481Z,10.55
2023-04-12T08:33:39.218Z,10.58
2023-04-12T08:36:08.159Z,10.60
2023-04-12T08:38:45.018Z,10.62
2023-04-12T08:41:15.336Z,10.76
2023-04-12T08:43:46.244Z,10.83
2023-04-12T08:46:16.490Z,10.95
2023-04-12T08:48:46.570Z,10.92
2023-04-12T08:51:16.098Z,10.85
2023-04-12T08:53:44.352Z,10.88
2023-04-12T08:56:13.457Z,10.84
2023-04-12T08:58:48.935Z,10.94
2023-04-12T09:01:18.692Z,10.59
2023-04-12T09:03:47.518Z,10.61
2023-04-12T09:06:15.697Z,10.57
2023-04-12T09:08:54.457Z,10.57
2023-04-12T09:11:24.437Z,10.64
2023-04-12T09:13:54.615Z,10.60
2023-04-12T09:16:36.434Z,10.66
2023-04-12T09:19:04.646Z,10.59
2023-04-12T09:21:34.713Z,10.56
2023-04-12T09:24:12.369Z,10.45
2023-04-12T09:26:42.096Z,10.52
2023-04-12T09:29:24.128Z,10.57
2023-04-12T09:32:01.568Z,10.61
2023-04-12T09:34:30.004Z,10.73
2023-04-12T09:36:58.908Z,10.81
2023-04-12T09:39:34.112Z,10.69
2023-04-12T09:42:08.913Z,10.69
2023-04-12T09:44:42.077Z,10.55
2023-04-12T09:47:10.013Z,10.65
2023-04-12T09:49:39.753Z,10.89
2023-04-12T09:52:08.862Z,11.03
2023-04-12T09:54:40.387Z,11.10
2023-04-12T09:57:09.308Z,10.93
2023-04-12T09:59:39.540Z,11.07
2023-04-12T10:02:16.645Z,11.07
2023-04-12T10:04:45.630Z,11.19
2023-04-12T10:07:15.184Z,11.23
2023-04-12T10:09:43.525Z,11.27
2023-04-12T10:12:11.432Z,11.25
2023-04-12T10:14:40.433Z,11.20
2023-04-12T10:17:12.172Z,11.32
2023-04-12T10:19:41.011Z,11.51
2023-04-12T10:22:08.838Z,11.54
2023-04-12T10:24:37.002Z,11.59
2023-04-12T10:27:05.605Z,11.69
2023-04-12T10:29:37.082Z,11.84
2023-04-12T10:32:22.965Z,11.89
2023-04-12T10:34:56.480Z,11.88
2023-04-12T10:37:58.940Z,12.04
2023-04-12T10:40:27.464Z,12.08
2023-04-12T10:43:26.417Z,12.19
2023-04-12T10:45:54.584Z,12.10
2023-04-12T10:48:33.036Z,12.34
2023-04-12T10:51:15.267Z,12.21
2023-04-12T10:53:43.290Z,12.18
2023-04-12T10:56:37.465Z,12.41
2023-04-12T10:59:06.379Z,12.34
2023-04-12T11:01:41.336Z,12.51
2023-04-12T11:04:17.024Z,12.61
2023-04-12T11:07:11.252Z,12.79
2023-04-12T11:10:03.027Z,12.98
2023-04-12T11:12:35.537Z,12.85
2023-04-12T11:15:06.192Z,12.94
2023-04-12T11:17:54.465Z,12.86
2023-04-12T11:20:24.168Z,12.75
2023-04-12T11:22:53.949Z,12.66
2023-04-12T11:25:24.130Z,12.62
2023-04-12T11:27:53.562Z,12.51
2023-04-12T11:30:23.704Z,12.75
2023-04-12T11:32:51.793Z,12.80
2023-04-12T11:35:24.462Z,12.83
2023-04-12T11:37:53.829Z,13.04
2023-04-12T11:40:23.426Z,13.15
2023-04-12T11:42:51.354Z,13.23
2023-04-12T11:45:20.962Z,13.07
2023-04-12T11:47:49.214Z,13.08
2023-04-12T11:50:29.789Z,13.14
2023-04-12T11:53:10.894Z,12.95
2023-04-12T11:55:39.047Z,12.80
2023-04-12T11:58:07.614Z,12.95
2023-04-12T12:00:36.431Z,13.15
2023-04-12T12:03:08.359Z,13.19
2023-04-12T12:05:38.733Z,13.24
2023-04-12T12:08:08.918Z,13.32
2023-04-12T12:10:52.011Z,13.19
2023-04-12T12:13:25.452Z,13.12
2023-04-12T12:15:53.966Z,13.19
2023-04-12T12:18:27.574Z,13.18
2023-04-12T12:20:56.573Z,13.35
2023-04-12T12:23:33.312Z,13.19
2023-04-12T12:26:17.580Z,13.17
2023-04-12T12:28:51.078Z,13.30
2023-04-12T12:31:21.669Z,13.19
2023-04-12T12:33:49.797Z,13.16
2023-04-12T12:36:21.149Z,12.99
2023-04-12T12:38:54.333Z,13.03
2023-04-12T12:41:23.545Z,12.96
2023-04-12T12:43:53.425Z,13.15
2023-04-12T12:46:21.746Z,13.22
2023-04-12T12:48:49.912Z,13.20
2023-04-12T12:51:19.832Z,13.33
2023-04-12T12:53:48.558Z,13.29
2023-04-12T12:56:18.026Z,13.33
2023-04-12T12:58:46.710Z,13.51
2023-04-12T13:01:14.784Z,13.53
2023-04-12T13:03:42.799Z,13.59
2023-04-12T13:06:10.924Z,13.50
2023-04-12T13:08:38.735Z,13.35
2023-04-12T13:11:07.161Z,13.08
2023-04-12T13:13:37.245Z,13.16
2023-04-12T13:16:06.147Z,13.25
2023-04-12T13:18:34.198Z,13.33
2023-04-12T13:21:02.299Z,13.11
2023-04-12T13:23:30.858Z,13.09
2023-04-12T13:25:59.017Z,13.03
2023-04-12T13:28:26.822Z,13.19
2023-04-12T13:30:57.393Z,13.21
2023-04-12T13:33:25.490Z,13.24
2023-04-12T13:35:53.469Z,13.35
2023-04-12T13:38:21.339Z,13.24
2023-04-12T13:40:49.250Z,13.17
2023-04-12T13:43:17.707Z,12.73
2023-04-12T13:45:45.772Z,12.88
2023-04-12T13:48:15.045Z,12.78
2023-04-12T13:50:42.982Z,12.95
2023-04-12T13:53:10.799Z,13.08
2023-04-12T13:55:38.831Z,13.26
2023-04-12T13:58:06.924Z,13.42
2023-04-12T14:00:34.809Z,13.21
2023-04-12T14:03:02.848Z,13.12
2023-04-12T14:05:32.135Z,13.17
2023-04-12T14:08:00.114Z,13.08
2023-04-12T14:10:28.117Z,13.24
2023-04-12T14:12:56.375Z,13.25
2023-04-12T14:15:24.234Z,13.02
2023-04-12T14:17:52.312Z,13.05
2023-04-12T14:20:20.987Z,13.21
2023-04-12T14:22:50.617Z,13.29
2023-04-12T14:25:18.939Z,13.34
2023-04-12T14:27:46.839Z,13.20
2023-04-12T14:30:17.011Z,13.41
2023-04-12T14:32:47.449Z,13.34
2023-04-12T14:35:15.866Z,13.26
2023-04-12T14:37:44.190Z,13.10
2023-04-12T14:40:13.781Z,13.11
2023-04-12T14:42:41.678Z,13.12
2023-04-12T14:45:11.061Z,13.08
2023-04-12T14:47:39.186Z,13.00
2023-04-12T14:50:08.284Z,12.82
2023-04-12T14:52:36.339Z,12.97
2023-04-12T14:55:04.921Z,12.93
2023-04-12T14:57:35.197Z,12.94
2023-04-12T15:00:04.459Z,13.11
2023-04-12T15:02:32.835Z,13.40
2023-04-12T15:05:04.123Z,13.54
2023-04-12T15:07:32.129Z,13.87
2023-04-12T15:10:00.687Z,13.92
2023-04-12T15:12:29.107Z,13.94
2023-04-12T15:14:58.384Z,14.32
2023-04-12T15:17:26.613Z,14.23
2023-04-12T15:19:54.738Z,14.14
2023-04-12T15:22:25.837Z,13.99
2023-04-12T15:24:53.783Z,13.79
2023-04-12T15:27:21.747Z,13.73
2023-04-12T15:29:49.545Z,13.88
2023-04-12T15:32:18.884Z,13.91
2023-04-12T15:34:46.984Z,14.00
2023-04-12T15:37:15.861Z,13.90
2023-04-12T15:39:43.780Z,13.81
2023-04-12T15:42:11.755Z,13.46
2023-04-12T15:44:42.761Z,13.10
2023-04-12T15:47:12.066Z,12.90
2023-04-12T15:49:41.689Z,12.80
2023-04-12T15:52:09.523Z,12.89
2023-04-12T15:54:43.529Z,13.09
2023-04-12T15:57:11.944Z,13.21
2023-04-12T15:59:41.767Z,13.20
2023-04-12T16:02:10.319Z,13.19
2023-04-12T16:04:39.391Z,13.08
2023-04-12T16:07:09.046Z,13.18
2023-04-12T16:09:39.634Z,13.09
2023-04-12T16:12:07.754Z,12.98
2023-04-12T16:14:36.872Z,12.86
2023-04-12T16:17:05.065Z,12.95
2023-04-12T16:19:33.374Z,12.89
2023-04-12T16:22:01.888Z,12.94
2023-04-12T16:24:31.529Z,13.09
2023-04-12T16:26:59.342Z,13.14
2023-04-12T16:29:27.085Z,13.25
2023-04-12T16:31:55.060Z,13.31
2023-04-12T16:34:23.389Z,13.26
2023-04-12T16:36:52.985Z,13.19
2023-04-12T16:39:20.743Z,13.30
2023-04-12T16:41:49.883Z,13.30
2023-04-12T16:44:18.902Z,13.14
2023-04-12T16:46:47.756Z,13.15
2023-04-12T16:49:17.610Z,13.06
2023-04-12T16:51:46.942Z,13.09
2023-04-12T16:54:14.930Z,13.09
2023-04-12T16:56:42.791Z,13.21
2023-04-12T16:59:12.023Z,13.11
2023-04-12T17:01:40.212Z,13.12
2023-04-12T17:04:08.279Z,13.18
2023-04-12T17:06:36.147Z,13.21
2023-04-12T17:09:04.992Z,13.27
2023-04-12T17:11:33.244Z,13.24
2023-04-12T17:14:01.176Z,13.32
2023-04-12T17:16:30.674Z,13.20
2023-04-12T17:18:59.089Z,13.06
2023-04-12T17:21:27.847Z,12.74
2023-04-12T17:23:56.569Z,13.04
2023-04-12T17:26:27.347Z,13.17
2023-04-12T17:28:56.939Z,13.02
2023-04-12T17:31:27.012Z,12.96
2023-04-12T17:33:56.866Z,12.81
2023-04-12T17:36:24.929Z,12.76
2023-04-12T17:38:54.865Z,12.81
2023-04-12T17:41:23.193Z,12.85
2023-04-12T17:43:51.248Z,12.96
2023-04-12T17:46:19.074Z,13.08
2023-04-12T17:48:47.459Z,13.15
2023-04-12T17:51:16.749Z,13.25
2023-04-12T17:53:45.716Z,13.18
2023-04-12T17:56:13.982Z,13.17
2023-04-12T17:58:42.274Z,13.21
2023-04-12T18:01:11.993Z,13.39
2023-04-12T18:03:40.151Z,12.95
2023-04-12T18:06:08.620Z,13.00
2023-04-12T18:08:38.523Z,12.90
2023-04-12T18:11:08.012Z,12.71
2023-04-12T18:13:35.852Z,12.81
2023-04-12T18:16:04.102Z,12.81
2023-04-12T18:18:31.961Z,12.80
2023-04-12T18:20:59.812Z,12.86
2023-04-12T18:23:27.704Z,12.99
2023-04-12T18:25:56.952Z,12.86
2023-04-12T18:28:25.800Z,12.88
2023-04-12T18:30:54.998Z,12.72
2023-04-12T18:33:24.677Z,12.68
2023-04-12T18:35:53.097Z,12.65
2023-04-12T18:38:20.823Z,12.69
2023-04-12T18:40:49.100Z,12.72
2023-04-12T18:43:18.310Z,12.79
2023-04-12T18:45:46.181Z,12.83
2023-04-12T18:48:14.353Z,12.79
2023-04-12T18:50:42.333Z,12.61
2023-04-12T18:53:10.934Z,12.67
2023-04-12T18:55:38.806Z,12.77
2023-04-12T18:58:06.996Z,12.91
2023-04-12T19:00:36.421Z,12.94
2023-04-12T19:03:04.651Z,12.87
2023-04-12T19:05:32.932Z,12.88
2023-04-12T19:08:01.495Z,12.90
2023-04-12T19:10:30.889Z,12.91
2023-04-12T19:12:59.310Z,12.98
2023-04-12T19:15:27.212Z,13.03
2023-04-12T19:17:58.319Z,13.05
2023-04-12T19:20:27.551Z,13.09
2023-04-12T19:22:55.663Z,13.04
2023-04-12T19:25:29.543Z,13.07
2023-04-12T19:28:00.126Z,13.08
2023-04-12T19:30:28.146Z,13.09
2023-04-12T19:32:58.971Z,13.11
2023-04-12T19:35:28.830Z,13.14
2023-04-12T19:37:57.417Z,13.14
2023-04-12T19:40:25.342Z,13.11
2023-04-12T19:42:53.342Z,13.16
2023-04-12T19:45:21.297Z,13.13
2023-04-12T19:47:49.394Z,13.18
2023-04-12T19:50:19.720Z,13.17
2023-04-12T19:52:48.802Z,13.15
2023-04-12T19:55:17.801Z,13.16
2023-04-12T19:57:46.043Z,13.17
2023-04-12T20:00:19.590Z,13.16
2023-04-12T20:02:47.509Z,13.32
2023-04-12T20:05:15.798Z,13.12
2023-04-12T20:07:45.268Z,13.02
2023-04-12T20:10:15.414Z,12.98
2023-04-12T20:12:44.525Z,12.89
2023-04-12T20:15:13.715Z,12.65
2023-04-12T20:17:42.957Z,12.58
2023-04-12T20:20:12.769Z,12.43
2023-04-12T20:22:41.134Z,12.37
2023-04-12T20:25:11.153Z,12.08
2023-04-12T20:27:39.706Z,12.22
2023-04-12T20:30:11.357Z,12.12
2023-04-12T20:32:39.556Z,12.18
2023-04-12T20:35:09.213Z,12.12
2023-04-12T20:37:37.676Z,12.08
2023-04-12T20:40:09.815Z,11.82
2023-04-12T20:42:39.301Z,11.68
2023-04-12T20:45:08.441Z,11.76
2023-04-12T20:47:37.993Z,11.56
2023-04-12T20:50:07.456Z,11.45
2023-04-12T20:52:35.308Z,11.47
2023-04-12T20:55:05.925Z,11.45
2023-04-12T20:57:34.642Z,11.31
2023-04-12T21:00:12.481Z,11.31
2023-04-12T21:02:40.584Z,11.38
2023-04-12T21:05:08.925Z,11.32
2023-04-12T21:07:37.494Z,11.38
2023-04-12T21:10:06.077Z,11.36
2023-04-12T21:12:35.455Z,11.28
2023-04-12T21:15:05.980Z,11.06
2023-04-12T21:17:34.321Z,11.12
2023-04-12T21:20:07.288Z,11.14
2023-04-12T21:22:35.036Z,11.11
2023-04-12T21:25:02.916Z,10.98
2023-04-12T21:27:31.022Z,11.01
2023-04-12T21:29:58.963Z,10.91
2023-04-12T21:32:30.180Z,10.91
2023-04-12T21:34:58.631Z,10.79
2023-04-12T21:37:27.040Z,10.84
2023-04-12T21:39:55.558Z,10.71
2023-04-12T21:42:23.544Z,10.77
2023-04-12T21:44:51.589Z,10.65
2023-04-12T21:47:20.051Z,10.65
2023-04-12T21:49:49.230Z,10.57
2023-04-12T21:52:17.035Z,10.48
2023-04-12T21:54:44.782Z,10.36
2023-04-12T21:57:12.464Z,10.41
2023-04-12T21:59:42.553Z,10.39
2023-04-12T22:02:10.554Z,10.15
2023-04-12T22:04:38.400Z,10.36
2023-04-12T22:07:10.326Z,10.38
2023-04-12T22:09:38.131Z,10.19
2023-04-12T22:12:08.748Z,10.35
2023-04-12T22:14:37.585Z,10.36
2023-04-12T22:17:06.758Z,10.31
2023-04-12T22:19:34.658Z,10.29
2023-04-12T22:22:02.947Z,10.43
2023-04-12T22:24:32.407Z,10.39
2023-04-12T22:27:01.324Z,10.32
2023-04-12T22:29:30.492Z,10.23
2023-04-12T22:31:58.392Z,10.16
2023-04-12T22:34:27.745Z,10.14
2023-04-12T22:36:58.857Z,10.19
2023-04-12T22:39:27.670Z,10.16
2023-04-12T22:41:57.448Z,10.07
2023-04-12T22:44:26.943Z,10.04
2023-04-12T22:46:56.658Z,10.07
2023-04-12T22:49:28.127Z,10.17
2023-04-12T22:51:56.596Z,10.28
2023-04-12T22:54:24.921Z,10.29
2023-04-12T22:56:53.046Z,10.02
2023-04-12T22:59:23.360Z,10.08
2023-04-12T23:01:51.430Z,10.18
2023-04-12T23:04:19.347Z,10.21
2023-04-12T23:06:47.637Z,10.37
2023-04-12T23:09:15.860Z,10.47
2023-04-12T23:11:44.086Z,10.53
2023-04-12T23:14:12.939Z,10.64
2023-04-12T23:16:47.761Z,10.67
2023-04-12T23:19:19.459Z,10.60
2023-04-12T23:21:47.790Z,10.54
2023-04-12T23:24:16.584Z,10.54
2023-04-12T23:26:45.404Z,10.55
2023-04-12T23:29:13.934Z,10.57
2023-04-12T23:31:45.260Z,10.59
2023-04-12T23:34:13.531Z,10.53
2023-04-12T23:36:41.241Z,10.33
2023-04-12T23:39:09.220Z,10.44
2023-04-12T23:41:37.119Z,10.47
2023-04-12T23:44:05.496Z,10.46
2023-04-12T23:46:33.189Z,10.31
2023-04-12T23:49:02.842Z,10.22
2023-04-12T23:51:30.673Z,10.36
2023-04-12T23:53:58.737Z,10.41
2023-04-12T23:56:27.241Z,10.51
2023-04-12T23:58:55.859Z,10.56
